createdAt,value
2023-10-16T00:01:27.663Z,100.00
2023-10-16T00:06:30.426Z,83.46
2023-10-16T00:11:32.561Z,92.52
2023-10-16T00:16:34.737Z,93.15
2023-10-16T00:21:45.230Z,100.00
2023-10-16T00:26:50.831Z,96.47
2023-10-16T00:31:54.061Z,100.00
2023-10-16T00:36:56.514Z,86.65
2023-10-16T00:42:00.360Z,100.00
2023-10-16T00:47:06.979Z,84.25
2023-10-16T00:52:10.577Z,82.88
2023-10-16T00:57:12.905Z,100.00
2023-10-16T01:02:17.046Z,100.00
2023-10-16T01:07:20.743Z,100.00
2023-10-16T01:12:23.544Z,100.00
2023-10-16T01:17:32.322Z,100.00
2023-10-16T01:22:36.399Z,100.00
2023-10-16T01:27:41.704Z,94.02
2023-10-16T01:32:43.927Z,87.16
2023-10-16T01:37:48.072Z,99.78
2023-10-16T01:42:55.912Z,97.37
2023-10-16T01:47:58.463Z,100.00
2023-10-16T01:53:00.991Z,100.00
2023-10-16T01:58:04.673Z,100.00
2023-10-16T02:03:10.389Z,100.00
2023-10-16T02:08:16.086Z,100.00
2023-10-16T02:13:18.365Z,100.00
2023-10-16T02:18:24.442Z,100.00
2023-10-16T02:23:32.074Z,100.00
2023-10-16T02:28:34.988Z,97.97
2023-10-16T02:33:38.235Z,100.00
2023-10-16T02:38:43.254Z,100.00
2023-10-16T02:43:48.289Z,100.00
2023-10-16T02:48:54.574Z,100.00
2023-10-16T02:53:56.859Z,100.00
2023-10-16T02:58:58.971Z,100.00
2023-10-16T03:04:01.357Z,100.00
2023-10-16T03:09:38.721Z,100.00
2023-10-16T03:14:47.210Z,100.00
2023-10-16T03:19:50.015Z,100.00
2023-10-16T03:25:00.917Z,100.00
2023-10-16T03:30:03.228Z,100.00
2023-10-16T03:35:09.676Z,100.00
2023-10-16T03:40:13.622Z,100.00
2023-10-16T03:45:16.324Z,100.00
2023-10-16T03:50:24.756Z,100.00
2023-10-16T03:55:27.244Z,94.35
2023-10-16T04:00:45.246Z,100.00
2023-10-16T04:05:48.667Z,100.00
2023-10-16T04:10:55.010Z,100.00
2023-10-16T04:16:06.486Z,100.00
2023-10-16T04:21:15.240Z,100.00
2023-10-16T04:26:29.754Z,100.00
2023-10-16T04:31:56.700Z,100.00
2023-10-16T04:37:26.484Z,100.00
2023-10-16T04:42:57.953Z,99.08
2023-10-16T04:48:06.229Z,100.00
2023-10-16T04:53:12.794Z,100.00
2023-10-16T04:58:20.086Z,100.00
2023-10-16T05:03:25.990Z,100.00
2023-10-16T05:08:40.645Z,100.00
2023-10-16T05:14:00.948Z,100.00
2023-10-16T05:19:22.463Z,100.00
2023-10-16T05:24:43.407Z,100.00
2023-10-16T05:30:04.285Z,100.00
2023-10-16T05:35:26.006Z,100.00
2023-10-16T05:40:46.560Z,100.00
2023-10-16T05:46:07.493Z,100.00
2023-10-16T05:51:27.949Z,100.00
2023-10-16T05:56:48.765Z,100.00
2023-10-16T06:02:09.595Z,100.00
2023-10-16T06:07:30.472Z,100.00
2023-10-16T06:12:51.349Z,100.00
2023-10-16T06:17:53.700Z,100.00
2023-10-16T06:22:55.812Z,100.00
2023-10-16T06:27:58.200Z,100.00
2023-10-16T06:33:03.492Z,100.00
2023-10-16T06:38:12.629Z,100.00
2023-10-16T06:43:15.812Z,100.00
2023-10-16T06:48:17.994Z,100.00
2023-10-16T06:53:20.434Z,94.77
2023-10-16T06:58:23.261Z,98.20
2023-10-16T07:03:26.420Z,100.00
2023-10-16T07:08:28.672Z,100.00
2023-10-16T07:13:33.954Z,100.00
2023-10-16T07:18:37.229Z,95.74
2023-10-16T07:23:40.745Z,90.23
2023-10-16T07:28:43.305Z,97.25
2023-10-16T07:33:55.099Z,100.00
2023-10-16T07:38:58.273Z,100.00
2023-10-16T07:44:08.554Z,99.98
2023-10-16T07:49:11.573Z,100.00
2023-10-16T07:54:14.256Z,100.00
2023-10-16T07:59:22.480Z,100.00
2023-10-16T08:04:25.314Z,100.00
2023-10-16T08:09:27.951Z,84.90
2023-10-16T08:14:33.785Z,100.00
2023-10-16T08:19:41.017Z,100.00
2023-10-16T08:24:59.367Z,100.00
2023-10-16T08:30:20.174Z,100.00
2023-10-16T08:35:22.398Z,93.84
2023-10-16T08:40:34.938Z,87.22
2023-10-16T08:45:49.541Z,81.81
2023-10-16T08:50:59.432Z,88.86
2023-10-16T08:56:10.560Z,76.74
2023-10-16T09:01:18.782Z,84.47
2023-10-16T09:06:26.169Z,84.44
2023-10-16T09:11:28.673Z,82.44
2023-10-16T09:16:33.245Z,78.46
2023-10-16T09:21:39.864Z,100.00
2023-10-16T09:26:46.640Z,88.67
2023-10-16T09:31:52.527Z,98.13
2023-10-16T09:37:13.860Z,82.02
2023-10-16T09:42:16.771Z,88.70
2023-10-16T09:47:28.958Z,88.24
2023-10-16T09:52:34.790Z,87.84
2023-10-16T09:57:48.152Z,75.62
2023-10-16T10:03:04.415Z,88.35
2023-10-16T10:08:25.558Z,81.86
2023-10-16T10:13:35.488Z,86.53
2023-10-16T10:18:43.779Z,76.82
2023-10-16T10:23:50.616Z,73.63
2023-10-16T10:29:13.673Z,76.63
2023-10-16T10:34:30.576Z,78.64
2023-10-16T10:39:42.180Z,79.85
2023-10-16T10:44:56.307Z,71.13
2023-10-16T10:50:01.360Z,85.43
2023-10-16T10:55:15.810Z,88.10
2023-10-16T11:00:28.247Z,54.21
2023-10-16T11:05:35.036Z,63.21
2023-10-16T11:10:47.843Z,51.23
2023-10-16T11:16:00.422Z,42.52
2023-10-16T11:21:08.411Z,38.40
2023-10-16T11:26:15.091Z,40.62
2023-10-16T11:31:20.027Z,46.09
2023-10-16T11:36:24.633Z,48.39
2023-10-16T11:41:28.345Z,55.60
2023-10-16T11:46:33.982Z,59.88
2023-10-16T11:51:36.932Z,47.29
2023-10-16T11:56:39.382Z,56.77
2023-10-16T12:06:50.029Z,53.97
2023-10-16T12:11:54.131Z,49.32
2023-10-16T12:16:59.013Z,46.39
2023-10-16T12:22:01.650Z,49.25
2023-10-16T12:27:04.139Z,64.14
2023-10-16T12:32:06.296Z,50.32
2023-10-16T12:37:08.924Z,51.02
2023-10-16T12:42:12.031Z,63.31
2023-10-16T12:52:22.520Z,61.68
2023-10-16T12:57:25.761Z,57.79
2023-10-16T13:02:28.184Z,61.13
2023-10-16T13:07:42.306Z,62.22
2023-10-16T13:12:46.294Z,61.54
2023-10-16T13:17:50.346Z,65.90
2023-10-16T13:22:54.464Z,57.49
2023-10-16T13:27:57.431Z,40.97
2023-10-16T13:33:08.437Z,34.25
2023-10-16T13:38:11.154Z,40.43
2023-10-16T13:43:13.493Z,32.72
2023-10-16T13:48:18.349Z,45.05
2023-10-16T13:53:21.520Z,56.32
2023-10-16T13:58:23.970Z,52.62
2023-10-16T14:03:26.433Z,47.97
2023-10-16T14:08:32.247Z,50.09
2023-10-16T14:13:34.636Z,45.10
2023-10-16T14:18:37.088Z,54.24
2023-10-16T14:23:40.333Z,57.69
2023-10-16T14:28:47.057Z,49.11
2023-10-16T14:39:24.760Z,56.86
2023-10-16T14:44:27.280Z,56.52
2023-10-16T14:49:31.852Z,49.31
2023-10-16T14:54:36.445Z,49.80
2023-10-16T14:59:38.951Z,58.79
2023-10-16T15:04:46.253Z,55.87
2023-10-16T15:09:50.051Z,59.85
2023-10-16T15:14:54.648Z,53.80
2023-10-16T15:19:56.858Z,52.83
2023-10-16T15:24:59.144Z,59.21
2023-10-16T15:30:01.382Z,62.83
2023-10-16T15:35:04.967Z,56.20
2023-10-16T15:40:09.257Z,61.75
2023-10-16T15:45:14.055Z,72.34
2023-10-16T15:50:16.239Z,59.92
2023-10-16T15:55:18.677Z,59.10
2023-10-16T16:00:27.599Z,63.51
2023-10-16T16:05:35.497Z,69.81
2023-10-16T16:10:41.620Z,66.28
2023-10-16T16:15:46.785Z,57.45
2023-10-16T16:20:49.059Z,55.18
2023-10-16T16:25:51.403Z,56.57
2023-10-16T16:30:55.917Z,57.79
2023-10-16T16:35:58.398Z,65.74
2023-10-16T16:41:00.616Z,66.20
2023-10-16T16:46:04.699Z,63.71
2023-10-16T16:51:06.927Z,65.03
2023-10-16T16:56:14.330Z,61.81
2023-10-16T17:01:16.588Z,62.60
2023-10-16T17:06:18.959Z,65.07
2023-10-16T17:11:22.255Z,55.12
2023-10-16T17:16:24.592Z,61.43
2023-10-16T17:21:26.957Z,57.73
2023-10-16T17:26:38.444Z,54.76
2023-10-16T17:31:42.167Z,58.10
2023-10-16T17:36:44.556Z,56.93
2023-10-16T17:41:48.545Z,53.95
2023-10-16T17:46:51.648Z,54.75
2023-10-16T17:51:56.032Z,55.41
2023-10-16T17:57:02.278Z,54.77
2023-10-16T18:02:11.494Z,55.21
2023-10-16T18:07:13.769Z,58.23
2023-10-16T18:12:21.452Z,58.37
2023-10-16T18:17:23.823Z,55.74
2023-10-16T18:22:26.661Z,57.56
2023-10-16T18:27:29.210Z,59.11
2023-10-16T18:32:32.087Z,55.69
2023-10-16T18:37:35.309Z,56.83
2023-10-16T18:42:40.926Z,60.09
2023-10-16T18:47:43.139Z,58.42
2023-10-16T18:52:48.936Z,61.86
2023-10-16T18:57:51.257Z,58.38
2023-10-16T19:02:59.947Z,62.02
2023-10-16T19:08:02.337Z,60.02
2023-10-16T19:13:05.475Z,59.26
2023-10-16T19:18:12.966Z,62.33
2023-10-16T19:23:15.401Z,61.54
2023-10-16T19:28:17.820Z,61.64
2023-10-16T19:33:22.464Z,61.46
2023-10-16T19:38:25.674Z,71.61
2023-10-16T19:43:27.932Z,61.14
2023-10-16T19:48:30.680Z,60.68
2023-10-16T19:53:37.036Z,63.22
2023-10-16T19:58:42.629Z,64.28
2023-10-16T20:03:46.788Z,64.34
2023-10-16T20:08:49.925Z,63.69
2023-10-16T20:13:52.172Z,65.17
2023-10-16T20:18:56.946Z,66.32
2023-10-16T20:24:05.244Z,67.83
2023-10-16T20:29:07.465Z,67.86
2023-10-16T20:34:10.494Z,66.20
2023-10-16T20:39:13.806Z,66.26
2023-10-16T20:44:16.084Z,70.76
2023-10-16T20:49:18.254Z,67.69
2023-10-16T20:54:23.044Z,66.85
2023-10-16T20:59:25.380Z,65.92
2023-10-16T21:04:28.223Z,67.27
2023-10-16T21:09:30.734Z,67.24
2023-10-16T21:14:36.641Z,66.96
2023-10-16T21:19:40.901Z,67.34
2023-10-16T21:24:44.408Z,66.83
2023-10-16T21:29:46.604Z,72.42
2023-10-16T21:34:52.554Z,64.03
2023-10-16T21:39:54.726Z,63.62
2023-10-16T21:44:57.017Z,64.16
2023-10-16T21:49:59.249Z,65.73
2023-10-16T21:55:02.113Z,67.34
2023-10-16T22:00:14.123Z,69.01
2023-10-16T22:05:16.694Z,70.82
2023-10-16T22:10:21.367Z,69.74
2023-10-16T22:15:24.526Z,71.38
2023-10-16T22:20:26.793Z,71.58
2023-10-16T22:25:30.755Z,70.25
2023-10-16T22:30:34.381Z,67.92
2023-10-16T22:35:43.389Z,69.07
2023-10-16T22:40:46.266Z,69.22
2023-10-16T22:45:48.562Z,75.07
2023-10-16T22:50:50.919Z,65.13
2023-10-16T22:55:53.127Z,64.41
2023-10-16T23:01:02.038Z,65.43
2023-10-16T23:06:06.816Z,66.97
2023-10-16T23:11:29.141Z,68.38
2023-10-16T23:16:31.397Z,71.66
2023-10-16T23:21:33.560Z,72.88
2023-10-16T23:26:36.057Z,74.80
2023-10-16T23:31:38.665Z,76.50
2023-10-16T23:36:40.880Z,77.41
2023-10-16T23:41:47.576Z,76.97
2023-10-16T23:46:57.279Z,78.75
2023-10-16T23:52:02.418Z,75.94
2023-10-16T23:57:07.504Z,74.46
